Time;durP1;ratioP1;P1;durP2;ratioP2;P2;SDS_P1;SDS_P2;PMS_P1;PMS_P2;Temp;Humidity;BMP_temperature;BMP_pressure;BME280_temperature;BME280_humidity;BME280_pressure;Samples;Min_cycle;Max_cycle;Signal;HPM_P1;HPM_P2
2023/03/28 00:01:08;;;;;;;2.43;0.33;;;4.00;1.00;;;;;;4993791;28;20254;-78
2023/03/28 00:03:38;;;;;;;2.83;0.50;;;4.10;1.00;;;;;;4997192;28;20172;-78
2023/03/28 00:06:12;;;;;;;2.13;0.53;;;4.10;1.00;;;;;;4997257;28;20484;-77
2023/03/28 00:08:39;;;;;;;1.60;0.40;;;4.10;1.00;;;;;;4997145;28;20552;-77
2023/03/28 00:11:09;;;;;;;8.07;1.30;;;4.10;1.00;;;;;;4997138;28;20922;-77
2023/03/28 00:13:35;;;;;;;6.43;0.70;;;4.10;1.00;;;;;;4997066;28;20413;-77
2023/03/28 00:16:07;;;;;;;2.20;0.47;;;4.10;1.00;;;;;;4996625;28;20515;-78
2023/03/28 00:18:36;;;;;;;2.67;0.50;;;4.10;1.00;;;;;;4997051;28;20446;-77
2023/03/28 00:21:02;;;;;;;3.57;0.53;;;4.00;1.00;;;;;;4996990;28;20462;-77
2023/03/28 00:23:29;;;;;;;7.63;0.77;;;4.00;1.00;;;;;;4996790;28;20421;-78
2023/03/28 00:26:02;;;;;;;0.80;0.27;;;4.00;1.00;;;;;;4996904;28;20757;-77
2023/03/28 00:28:28;;;;;;;2.67;0.50;;;4.00;1.00;;;;;;4996931;28;20415;-77
2023/03/28 00:31:01;;;;;;;0.60;0.20;;;4.00;1.00;;;;;;4996498;28;20437;-77
2023/03/28 00:33:27;;;;;;;0.77;0.33;;;3.90;1.00;;;;;;4995506;28;20652;-77
2023/03/28 00:35:55;;;;;;;2.80;0.40;;;3.90;1.00;;;;;;4996582;28;20837;-77
2023/03/28 00:38:20;;;;;;;7.83;2.20;;;4.00;1.00;;;;;;4995992;28;20438;-78
2023/03/28 00:40:47;;;;;;;2.73;0.50;;;4.10;1.00;;;;;;4995962;28;20426;-77
2023/03/28 00:43:12;;;;;;;1.50;0.20;;;4.00;1.00;;;;;;4996399;28;20164;-78
2023/03/28 00:45:41;;;;;;;3.10;0.50;;;4.00;99.90;;;;;;4994847;28;20436;-77
2023/03/28 00:48:12;;;;;;;7.83;0.60;;;3.90;99.90;;;;;;4996307;28;20238;-77
2023/03/28 00:50:41;;;;;;;1.30;0.33;;;3.80;1.00;;;;;;4996216;28;20505;-77
2023/03/28 00:53:12;;;;;;;6.67;0.60;;;3.80;1.00;;;;;;4996154;28;20419;-77
2023/03/28 00:55:47;;;;;;;2.10;0.37;;;3.80;1.00;;;;;;4995988;28;20462;-78
2023/03/28 00:58:23;;;;;;;7.37;0.70;;;3.90;1.00;;;;;;4995883;28;20412;-77
2023/03/28 01:00:53;;;;;;;2.30;0.47;;;3.80;99.90;;;;;;4994444;28;20937;-76
2023/03/28 01:03:21;;;;;;;0.80;0.23;;;3.80;1.00;;;;;;4995847;28;20415;-76
2023/03/28 01:05:47;;;;;;;0.80;0.57;;;3.80;99.90;;;;;;4995916;28;20429;-77
2023/03/28 01:08:20;;;;;;;0.80;0.40;;;3.80;99.90;;;;;;4995685;28;20469;-76
2023/03/28 01:10:46;;;;;;;1.90;0.43;;;3.80;99.90;;;;;;4995304;28;20191;-76
2023/03/28 01:13:15;;;;;;;3.17;0.53;;;3.70;99.90;;;;;;4995262;28;20462;-76
2023/03/28 01:15:41;;;;;;;1.80;0.50;;;3.60;99.90;;;;;;4993175;28;20517;-76
2023/03/28 01:18:10;;;;;;;0.77;0.40;;;3.50;99.90;;;;;;4995307;28;20417;-77
2023/03/28 01:21:03;;;;;;;1.47;0.83;;;3.60;99.90;;;;;;4995157;28;20424;-77
2023/03/28 01:24:00;;;;;;;1.53;0.40;;;3.50;99.90;;;;;;4995475;28;20423;-76
2023/03/28 01:26:50;;;;;;;4.77;0.50;;;3.50;99.90;;;;;;4995593;28;20423;-76
2023/03/28 01:30:00;;;;;;;1.93;0.73;;;3.50;99.90;;;;;;4995171;28;20419;-77
2023/03/28 01:33:01;;;;;;;3.37;0.53;;;3.50;99.90;;;;;;4995340;28;20469;-76
2023/03/28 01:35:48;;;;;;;0.80;0.40;;;3.50;99.90;;;;;;4994735;28;20480;-77
2023/03/28 01:38:30;;;;;;;1.20;0.33;;;3.50;99.90;;;;;;4995332;28;20486;-77
2023/03/28 01:41:14;;;;;;;1.43;0.23;;;3.60;99.90;;;;;;4989748;28;20448;-77
2023/03/28 01:43:54;;;;;;;2.33;0.50;;;3.50;99.90;;;;;;4994124;28;20525;-77
2023/03/28 01:46:27;;;;;;;0.60;0.20;;;3.50;99.90;;;;;;5009767;28;20425;-76
2023/03/28 01:49:34;;;;;;;5.37;0.30;;;3.40;99.90;;;;;;4995133;28;20418;-76
2023/03/28 01:52:15;;;;;;;0.40;0.27;;;3.20;99.90;;;;;;4991652;28;20434;-77
2023/03/28 01:54:59;;;;;;;0.80;0.43;;;3.30;99.90;;;;;;4993738;28;20463;-76
2023/03/28 01:57:36;;;;;;;2.27;0.30;;;3.30;99.90;;;;;;4992254;28;20438;-76
2023/03/28 02:00:18;;;;;;;0.97;0.43;;;3.20;99.90;;;;;;4991695;28;20427;-77
2023/03/28 02:02:50;;;;;;;0.70;0.20;;;3.20;99.90;;;;;;4991621;28;20402;-76
2023/03/28 02:05:18;;;;;;;2.80;0.37;;;3.20;99.90;;;;;;4992542;28;20819;-77
2023/03/28 02:07:45;;;;;;;1.40;0.37;;;3.10;99.90;;;;;;4993467;28;20418;-76
2023/03/28 02:10:14;;;;;;;1.23;0.30;;;3.10;99.90;;;;;;5008848;28;20419;-77
2023/03/28 02:12:48;;;;;;;1.87;0.30;;;3.10;99.90;;;;;;4993696;28;20420;-77
2023/03/28 02:15:16;;;;;;;3.80;0.40;;;3.10;99.90;;;;;;4993223;28;20462;-76
2023/03/28 02:17:48;;;;;;;1.93;0.40;;;3.10;99.90;;;;;;4993651;28;20494;-76
2023/03/28 02:20:18;;;;;;;4.33;0.80;;;3.20;99.90;;;;;;4993524;28;20419;-76
2023/03/28 02:23:05;;;;;;;0.40;0.20;;;3.30;99.90;;;;;;4993459;28;20907;-77
2023/03/28 02:25:31;;;;;;;1.27;0.30;;;3.20;99.90;;;;;;5007965;28;20992;-76
2023/03/28 02:28:01;;;;;;;1.03;0.37;;;3.20;99.90;;;;;;4993480;28;20558;-76
2023/03/28 02:30:27;;;;;;;2.20;0.30;;;3.20;99.90;;;;;;4993028;28;20771;-76
2023/03/28 02:32:59;;;;;;;1.93;0.60;;;3.30;99.90;;;;;;4992003;28;20437;-76
2023/03/28 02:35:47;;;;;;;1.50;1.03;;;3.30;99.90;;;;;;4993069;28;20612;-76
2023/03/28 02:38:40;;;;;;;1.47;0.20;;;3.30;99.90;;;;;;4993218;28;20421;-76
2023/03/28 02:41:28;;;;;;;0.70;0.33;;;3.30;99.90;;;;;;4991739;28;20757;-76
2023/03/28 02:44:17;;;;;;;0.97;0.40;;;3.30;99.90;;;;;;4993028;28;20419;-78
2023/03/28 02:47:34;;;;;;;3.17;0.20;;;3.30;99.90;;;;;;4992989;28;20931;-77
2023/03/28 02:50:21;;;;;;;0.60;0.30;;;3.20;99.90;;;;;;4993006;28;20466;-77
2023/03/28 02:53:09;;;;;;;0.60;0.47;;;3.20;99.90;;;;;;4992918;28;20409;-76
2023/03/28 02:55:53;;;;;;;1.60;0.30;;;3.20;99.90;;;;;;4992747;28;20467;-77
2023/03/28 02:58:28;;;;;;;2.10;0.40;;;3.10;99.90;;;;;;4992979;28;20411;-77
2023/03/28 03:00:54;;;;;;;0.70;0.30;;;3.00;99.90;;;;;;4992386;28;20413;-76
2023/03/28 03:03:20;;;;;;;0.53;0.20;;;3.10;99.90;;;;;;4992829;28;20433;-76
2023/03/28 03:05:46;;;;;;;1.70;0.50;;;3.20;99.90;;;;;;4992610;28;20494;-79
2023/03/28 03:08:11;;;;;;;0.67;0.20;;;3.20;99.90;;;;;;4992314;28;20614;-77
2023/03/28 03:10:37;;;;;;;1.43;0.43;;;3.20;99.90;;;;;;4992856;28;20172;-77
2023/03/28 03:13:02;;;;;;;0.83;0.40;;;3.20;99.90;;;;;;4992494;28;20184;-79
2023/03/28 03:15:31;;;;;;;1.40;0.33;;;3.20;99.90;;;;;;4992281;28;20204;-76
2023/03/28 03:17:57;;;;;;;0.67;0.33;;;3.20;99.90;;;;;;4992574;28;20624;-76
2023/03/28 03:20:25;;;;;;;1.53;0.50;;;3.20;99.90;;;;;;4992443;28;20419;-76
2023/03/28 03:22:50;;;;;;;0.80;0.57;;;3.20;99.90;;;;;;4992507;28;20432;-77
2023/03/28 03:25:16;;;;;;;0.97;0.50;;;3.20;99.90;;;;;;4993226;28;20441;-76
2023/03/28 03:27:42;;;;;;;1.33;0.73;;;3.10;99.90;;;;;;4993737;28;20445;-76
2023/03/28 03:30:08;;;;;;;2.20;0.30;;;3.10;99.90;;;;;;4993420;28;20170;-76
2023/03/28 03:32:34;;;;;;;2.87;0.47;;;3.10;99.90;;;;;;4993506;28;20184;-76
2023/03/28 03:34:59;;;;;;;1.43;0.67;;;3.10;99.90;;;;;;4990029;28;20808;-76
2023/03/28 03:37:26;;;;;;;1.90;0.40;;;3.10;99.90;;;;;;4987595;28;20184;-78
2023/03/28 03:39:51;;;;;;;0.80;0.43;;;3.10;1.00;;;;;;4973931;28;20173;-78
2023/03/28 03:42:17;;;;;;;1.27;0.30;;;3.10;99.90;;;;;;4989897;28;20415;-77
2023/03/28 03:44:43;;;;;;;0.60;0.40;;;3.10;99.90;;;;;;5007738;28;20179;-76
2023/03/28 03:47:08;;;;;;;2.50;0.60;;;3.10;99.90;;;;;;5008235;28;20457;-77
2023/03/28 03:49:34;;;;;;;0.60;0.30;;;3.00;1.00;;;;;;4993294;28;20529;-78
2023/03/28 03:51:59;;;;;;;0.60;0.40;;;3.10;1.00;;;;;;4991995;28;20184;-77
2023/03/28 03:54:25;;;;;;;0.93;0.47;;;3.00;1.00;;;;;;4992920;28;20200;-77
2023/03/28 03:56:50;;;;;;;1.33;0.47;;;3.00;1.00;;;;;;4992756;28;20179;-78
2023/03/28 03:59:16;;;;;;;0.50;0.20;;;3.00;1.00;;;;;;4992541;28;20180;-76
2023/03/28 04:01:42;;;;;;;0.77;0.47;;;3.00;1.00;;;;;;4993187;28;20235;-77
2023/03/28 04:04:09;;;;;;;0.73;0.63;;;2.90;1.00;;;;;;4993059;28;20164;-78
2023/03/28 04:06:37;;;;;;;2.90;0.50;;;2.90;1.00;;;;;;4991711;28;20485;-77
2023/03/28 04:09:03;;;;;;;1.10;0.53;;;2.90;1.00;;;;;;4992737;28;20467;-79
2023/03/28 04:11:29;;;;;;;1.17;1.07;;;2.90;1.00;;;;;;4991908;28;20428;-77
2023/03/28 04:13:55;;;;;;;0.90;0.57;;;3.00;1.00;;;;;;4988276;28;20438;-77
2023/03/28 04:16:20;;;;;;;2.43;0.60;;;2.90;1.00;;;;;;4985979;28;20214;-76
2023/03/28 04:18:49;;;;;;;1.03;0.67;;;2.80;1.00;;;;;;4992994;28;20168;-76
2023/03/28 04:21:17;;;;;;;4.57;1.37;;;2.70;1.00;;;;;;4991344;28;20675;-76
2023/03/28 04:23:43;;;;;;;1.73;0.50;;;2.60;1.00;;;;;;4991571;28;20429;-76
2023/03/28 04:26:08;;;;;;;1.67;0.83;;;2.50;1.00;;;;;;4991622;28;20790;-76
2023/03/28 04:28:34;;;;;;;1.43;0.63;;;2.40;1.00;;;;;;4991504;28;20458;-78
2023/03/28 04:31:00;;;;;;;1.80;0.90;;;2.30;1.00;;;;;;4992532;28;20619;-78
2023/03/28 04:33:29;;;;;;;0.97;0.33;;;2.30;1.00;;;;;;4991573;28;20473;-75
2023/03/28 04:35:59;;;;;;;1.50;0.50;;;2.30;1.00;;;;;;4991808;28;20625;-75
2023/03/28 04:38:25;;;;;;;1.43;0.70;;;2.20;1.00;;;;;;5003103;23;20584;-77
2023/03/28 04:40:52;;;;;;;1.40;0.60;;;2.10;1.00;;;;;;4934098;29;20995;-77
2023/03/28 04:43:19;;;;;;;1.23;0.77;;;2.10;1.00;;;;;;4931872;29;20426;-78
2023/03/28 04:45:44;;;;;;;1.63;0.60;;;2.10;1.00;;;;;;4915544;29;20416;-78
2023/03/28 04:48:10;;;;;;;2.03;1.30;;;2.10;1.00;;;;;;4918098;29;20438;-78
2023/03/28 04:50:35;;;;;;;1.40;0.60;;;2.00;1.00;;;;;;4919070;29;20218;-78
2023/03/28 04:53:01;;;;;;;1.47;0.60;;;2.00;1.00;;;;;;4919089;29;20174;-80
2023/03/28 04:55:27;;;;;;;1.57;1.30;;;1.90;1.00;;;;;;4919093;29;20221;-77
2023/03/28 04:57:52;;;;;;;2.40;0.77;;;1.90;1.00;;;;;;4933647;29;20180;-77
2023/03/28 05:00:18;;;;;;;1.73;1.00;;;1.80;1.00;;;;;;4933259;29;20462;-78
2023/03/28 05:02:43;;;;;;;2.40;0.87;;;1.80;1.00;;;;;;4921262;29;20209;-78
2023/03/28 05:05:09;;;;;;;2.50;0.70;;;1.70;1.00;;;;;;4937820;29;20182;-78
2023/03/28 05:07:35;;;;;;;2.37;1.00;;;1.70;1.00;;;;;;4937044;29;20180;-78
2023/03/28 05:10:01;;;;;;;1.07;0.90;;;1.70;1.00;;;;;;4936534;29;20184;-78
2023/03/28 05:12:27;;;;;;;2.10;0.87;;;1.70;1.00;;;;;;4936804;29;20501;-77
2023/03/28 05:14:52;;;;;;;2.50;1.20;;;1.70;1.00;;;;;;4937437;29;21049;-77
2023/03/28 05:17:18;;;;;;;0.90;0.60;;;1.70;1.00;;;;;;4937394;29;20181;-79
2023/03/28 05:19:43;;;;;;;1.63;0.63;;;1.70;1.00;;;;;;4937828;29;20195;-79
2023/03/28 05:22:09;;;;;;;3.73;1.20;;;1.70;1.00;;;;;;4937540;29;20835;-79
2023/03/28 05:24:34;;;;;;;1.70;0.70;;;1.70;1.00;;;;;;4937381;29;20217;-79
2023/03/28 05:27:00;;;;;;;1.03;0.90;;;1.70;1.00;;;;;;4937635;29;20173;-80
2023/03/28 05:29:25;;;;;;;1.77;0.80;;;1.80;1.00;;;;;;4937271;29;20177;-79
2023/03/28 05:31:51;;;;;;;3.17;1.70;;;1.90;1.00;;;;;;4937394;29;20173;-77
2023/03/28 05:34:16;;;;;;;1.37;0.50;;;1.90;1.00;;;;;;4937272;29;20185;-78
2023/03/28 05:36:42;;;;;;;2.00;0.70;;;1.90;1.00;;;;;;4936252;29;20606;-78
2023/03/28 05:39:07;;;;;;;3.63;1.10;;;1.90;1.00;;;;;;4936066;29;20325;-78
2023/03/28 05:41:33;;;;;;;3.23;1.80;;;1.90;1.00;;;;;;4936380;29;20192;-77
2023/03/28 05:43:58;;;;;;;1.17;0.97;;;1.90;1.00;;;;;;4937060;29;20315;-77
2023/03/28 05:46:24;;;;;;;1.53;0.93;;;2.00;7.90;;;;;;4937424;29;20647;-78
2023/03/28 05:48:50;;;;;;;4.53;1.00;;;2.00;3.10;;;;;;4937413;29;20585;-77
2023/03/28 05:51:15;;;;;;;2.00;1.23;;;2.00;1.00;;;;;;4937365;29;20174;-78
2023/03/28 05:53:41;;;;;;;2.27;0.70;;;2.00;1.00;;;;;;4937298;29;20457;-77
2023/03/28 05:56:07;;;;;;;4.80;1.13;;;2.00;1.00;;;;;;4936830;29;20501;-78
2023/03/28 05:58:33;;;;;;;1.63;1.10;;;1.90;1.00;;;;;;4935526;29;20253;-77
2023/03/28 06:01:00;;;;;;;1.30;0.87;;;2.00;2.10;;;;;;4937320;29;20433;-77
2023/03/28 06:03:26;;;;;;;5.93;1.40;;;2.00;1.00;;;;;;4937217;29;20656;-78
2023/03/28 06:05:52;;;;;;;2.40;0.83;;;2.00;4.50;;;;;;4937132;29;20931;-77
2023/03/28 06:08:18;;;;;;;2.03;1.20;;;2.00;13.10;;;;;;4935929;29;20468;-77
2023/03/28 06:10:43;;;;;;;2.00;0.90;;;2.00;1.00;;;;;;4937086;29;20427;-77
2023/03/28 06:13:11;;;;;;;3.47;1.30;;;2.00;1.00;;;;;;4936622;29;20636;-77
2023/03/28 06:15:37;;;;;;;4.13;1.23;;;2.00;21.80;;;;;;4951290;29;20309;-77
2023/03/28 06:18:02;;;;;;;4.23;1.60;;;2.10;45.30;;;;;;4951620;29;20513;-77
2023/03/28 06:20:28;;;;;;;3.00;1.63;;;2.20;57.00;;;;;;4936827;29;20182;-77
2023/03/28 06:22:53;;;;;;;2.20;2.00;;;2.30;82.50;;;;;;4936718;29;20182;-77
2023/03/28 06:25:19;;;;;;;5.20;1.00;;;2.40;80.20;;;;;;4935567;29;20222;-77
2023/03/28 06:27:44;;;;;;;2.83;1.10;;;2.60;94.90;;;;;;4951518;29;20325;-77
2023/03/28 06:30:10;;;;;;;2.33;1.23;;;2.80;90.10;;;;;;4936440;29;20507;-77
2023/03/28 06:32:36;;;;;;;1.23;1.03;;;2.90;83.70;;;;;;4936692;29;20175;-78
2023/03/28 06:35:01;;;;;;;3.40;1.30;;;3.20;99.90;;;;;;4934920;29;20477;-76
2023/03/28 06:37:27;;;;;;;2.30;0.50;;;3.50;99.90;;;;;;4935188;29;20225;-77
2023/03/28 06:39:53;;;;;;;3.07;0.60;;;4.00;99.90;;;;;;4936591;29;20559;-76
2023/03/28 06:42:19;;;;;;;5.03;0.53;;;4.70;99.90;;;;;;4936708;29;20199;-78
2023/03/28 06:44:44;;;;;;;2.63;0.67;;;5.50;99.90;;;;;;4936073;29;20467;-78
2023/03/28 06:47:10;;;;;;;2.37;0.57;;;6.30;57.10;;;;;;4926349;29;20429;-79
2023/03/28 06:49:35;;;;;;;3.20;1.17;;;7.20;1.00;;;;;;4916075;29;20691;-79
2023/03/28 06:52:01;;;;;;;1.40;0.33;;;8.00;1.00;;;;;;4916516;29;20625;-78
2023/03/28 06:54:26;;;;;;;1.47;0.40;;;8.80;1.00;;;;;;4917184;29;20284;-78
2023/03/28 06:56:55;;;;;;;0.70;0.30;;;9.50;99.90;;;;;;4917405;29;20193;-80
2023/03/28 06:59:20;;;;;;;2.00;0.40;;;10.30;99.90;;;;;;4916913;29;20208;-79
2023/03/28 07:01:46;;;;;;;1.57;0.20;;;10.80;1.00;;;;;;4917272;29;20450;-77
2023/03/28 07:04:11;;;;;;;3.03;1.40;;;11.40;99.90;;;;;;4917104;29;20197;-77
2023/03/28 07:06:37;;;;;;;2.30;0.40;;;11.90;99.90;;;;;;4917239;29;20173;-77
2023/03/28 07:09:02;;;;;;;2.23;0.30;;;12.40;99.90;;;;;;4917330;29;20215;-77
2023/03/28 07:11:28;;;;;;;5.00;0.50;;;12.90;99.90;;;;;;4916737;29;20189;-77
2023/03/28 07:13:54;;;;;;;2.83;0.50;;;13.30;99.90;;;;;;4916680;29;20658;-78
2023/03/28 07:16:19;;;;;;;6.03;1.00;;;13.80;95.80;;;;;;4916886;29;20315;-78
2023/03/28 07:18:45;;;;;;;4.03;0.60;;;14.30;68.70;;;;;;4916974;29;20263;-77
2023/03/28 07:21:13;;;;;;;3.40;0.57;;;14.70;52.10;;;;;;4917008;29;20178;-78
2023/03/28 07:23:39;;;;;;;3.60;0.47;;;15.10;41.20;;;;;;4916999;29;20175;-81
2023/03/28 07:26:06;;;;;;;1.60;0.30;;;15.40;29.20;;;;;;4916987;29;20919;-78
2023/03/28 07:28:32;;;;;;;4.53;0.77;;;15.70;23.30;;;;;;4916528;29;21003;-78
2023/03/28 07:30:59;;;;;;;5.20;0.50;;;16.10;19.60;;;;;;4915729;29;20532;-78
2023/03/28 07:33:25;;;;;;;5.80;0.60;;;16.00;7.60;;;;;;4916909;29;20915;-78
2023/03/28 07:35:51;;;;;;;3.63;0.50;;;16.00;1.10;;;;;;4916717;29;20488;-79
2023/03/28 07:38:17;;;;;;;1.67;0.60;;;15.70;1.00;;;;;;4916642;29;20643;-78
2023/03/28 07:40:43;;;;;;;4.33;0.93;;;15.90;1.00;;;;;;4916835;29;20426;-78
2023/03/28 07:43:08;;;;;;;4.27;0.70;;;16.30;1.00;;;;;;4931155;29;20517;-78
2023/03/28 07:45:34;;;;;;;6.50;0.80;;;16.70;1.00;;;;;;4916794;29;20212;-78
2023/03/28 07:48:00;;;;;;;5.90;0.60;;;16.80;1.00;;;;;;4916645;29;20178;-78
2023/03/28 07:50:25;;;;;;;4.10;0.60;;;17.40;1.00;;;;;;4916734;29;20425;-78
2023/03/28 07:52:56;;;;;;;2.50;0.50;;;17.60;1.00;;;;;;4916967;29;20174;-78
2023/03/28 07:55:22;;;;;;;3.03;0.83;;;17.50;1.00;;;;;;4916767;29;20234;-78
2023/03/28 07:57:47;;;;;;;3.00;0.63;;;16.90;1.00;;;;;;4916985;29;20416;-78
2023/03/28 08:00:14;;;;;;;4.53;0.47;;;16.90;1.00;;;;;;4916132;29;20433;-78
2023/03/28 08:02:40;;;;;;;2.97;0.73;;;17.10;1.00;;;;;;4916437;29;20307;-78
2023/03/28 08:05:05;;;;;;;2.23;0.40;;;17.40;1.00;;;;;;4916503;29;20444;-79
2023/03/28 08:07:32;;;;;;;2.97;0.60;;;17.60;1.00;;;;;;4916418;29;20180;-78
2023/03/28 08:09:58;;;;;;;3.23;0.63;;;17.50;1.00;;;;;;4916373;29;20188;-78
2023/03/28 08:12:24;;;;;;;3.00;0.50;;;17.10;1.00;;;;;;4916348;29;20982;-78
2023/03/28 08:14:49;;;;;;;1.13;0.30;;;17.10;1.00;;;;;;4915798;29;20670;-78
2023/03/28 08:17:15;;;;;;;4.23;0.57;;;17.30;1.00;;;;;;4916360;29;20211;-77
2023/03/28 08:19:40;;;;;;;4.03;0.50;;;17.70;1.00;;;;;;4916391;29;20182;-78
2023/03/28 08:22:06;;;;;;;2.63;0.50;;;17.70;1.00;;;;;;4931700;29;20265;-79
2023/03/28 08:24:32;;;;;;;4.00;1.57;;;18.10;1.00;;;;;;4934507;29;20174;-78
2023/03/28 08:26:57;;;;;;;6.13;1.10;;;18.50;1.00;;;;;;4934530;29;20185;-78
2023/03/28 08:29:23;;;;;;;3.83;0.50;;;18.60;1.00;;;;;;4934273;29;20593;-78
2023/03/28 08:31:48;;;;;;;2.33;0.30;;;18.70;1.00;;;;;;4919855;29;20214;-79
2023/03/28 08:34:14;;;;;;;3.07;0.70;;;18.80;1.00;;;;;;4919667;29;20665;-78
2023/03/28 08:36:40;;;;;;;5.10;1.03;;;18.50;1.00;;;;;;4919626;29;20178;-79
2023/03/28 08:39:06;;;;;;;3.60;0.40;;;18.70;1.00;;;;;;4919790;29;20210;-79
2023/03/28 08:41:54;;;;;;;4.53;1.20;;;18.70;1.00;;;;;;4919664;29;20457;-79
2023/03/28 08:44:40;;;;;;;4.47;0.90;;;18.80;1.00;;;;;;4919366;29;20422;-78
2023/03/28 08:47:21;;;;;;;2.70;0.63;;;18.40;1.00;;;;;;4919666;29;20426;-79
2023/03/28 08:49:58;;;;;;;4.30;0.60;;;18.50;1.00;;;;;;4919600;29;20422;-79
2023/03/28 08:52:24;;;;;;;4.30;0.53;;;18.80;1.00;;;;;;4919523;29;20422;-79
2023/03/28 08:55:05;;;;;;;1.97;0.20;;;18.80;1.00;;;;;;4919374;29;20468;-79
2023/03/28 08:57:33;;;;;;;2.57;0.30;;;19.00;1.00;;;;;;4919361;29;20419;-79
2023/03/28 09:00:13;;;;;;;2.00;0.50;;;19.30;1.00;;;;;;4918989;29;20442;-79
2023/03/28 09:02:40;;;;;;;2.83;0.60;;;19.30;1.00;;;;;;4919165;29;20407;-79
2023/03/28 09:05:11;;;;;;;3.10;0.40;;;19.00;1.00;;;;;;4919228;29;20420;-79
2023/03/28 09:07:37;;;;;;;4.30;0.60;;;18.90;1.00;;;;;;4919263;29;20423;-79
2023/03/28 09:10:21;;;;;;;3.47;0.57;;;18.50;1.00;;;;;;4919183;29;20946;-79
2023/03/28 09:13:15;;;;;;;3.67;0.50;;;18.40;1.00;;;;;;4919071;29;20235;-78
2023/03/28 09:15:44;;;;;;;4.27;0.30;;;18.00;1.00;;;;;;4933635;29;20881;-78
2023/03/28 09:18:36;;;;;;;3.67;1.10;;;18.50;1.00;;;;;;4933675;29;20437;-79
2023/03/28 09:21:33;;;;;;;4.40;0.50;;;18.50;1.00;;;;;;4919019;29;20421;-80
2023/03/28 09:24:17;;;;;;;4.00;0.40;;;18.10;1.00;;;;;;4918893;29;20498;-79
2023/03/28 09:26:49;;;;;;;4.30;0.97;;;17.40;1.00;;;;;;4918809;29;20563;-78
2023/03/28 09:29:23;;;;;;;4.57;0.73;;;16.60;1.00;;;;;;4918541;29;20420;-78
2023/03/28 09:31:54;;;;;;;4.03;0.87;;;15.90;1.00;;;;;;4918894;29;20410;-78
2023/03/28 09:34:33;;;;;;;5.90;0.97;;;15.30;1.00;;;;;;4932820;29;20499;-79
2023/03/28 09:37:20;;;;;;;3.77;0.30;;;14.60;1.00;;;;;;4933194;29;20549;-78
2023/03/28 09:39:52;;;;;;;5.87;0.60;;;14.00;1.00;;;;;;4918549;29;20436;-79
2023/03/28 09:42:32;;;;;;;7.43;0.83;;;13.70;1.00;;;;;;4917404;29;20860;-80
2023/03/28 09:45:27;;;;;;;5.53;1.33;;;13.10;1.00;;;;;;4918173;29;20430;-80
2023/03/28 09:47:52;;;;;;;5.93;1.03;;;12.70;1.00;;;;;;4918509;29;20431;-80
2023/03/28 09:50:18;;;;;;;1.40;0.53;;;12.70;1.00;;;;;;4918480;29;20419;-80
2023/03/28 09:52:45;;;;;;;2.57;0.37;;;12.90;1.00;;;;;;4918486;29;20176;-80
2023/03/28 09:55:23;;;;;;;1.83;0.47;;;13.20;1.00;;;;;;4918195;29;20476;-80
2023/03/28 09:58:10;;;;;;;2.73;0.47;;;13.30;1.00;;;;;;4918008;29;20517;-80
2023/03/28 10:00:40;;;;;;;4.37;0.77;;;13.30;1.00;;;;;;4918266;29;20427;-80
2023/03/28 10:03:21;;;;;;;1.73;0.40;;;13.00;1.00;;;;;;4918219;29;20918;-80
2023/03/28 10:05:48;;;;;;;1.97;0.30;;;13.40;1.00;;;;;;4918222;29;20423;-78
2023/03/28 10:08:21;;;;;;;3.00;0.40;;;14.70;1.00;;;;;;4918049;29;20931;-78
2023/03/28 10:11:12;;;;;;;5.50;0.53;;;15.60;1.00;;;;;;4918102;29;20416;-78
2023/03/28 10:13:51;;;;;;;2.60;0.80;;;15.90;1.00;;;;;;4917902;29;20441;-78
2023/03/28 10:16:30;;;;;;;4.30;0.60;;;15.60;1.00;;;;;;4918039;29;20474;-78
2023/03/28 10:18:55;;;;;;;2.80;0.40;;;15.00;1.00;;;;;;4918149;29;20410;-78
2023/03/28 10:21:25;;;;;;;6.53;0.80;;;14.30;1.00;;;;;;4918050;29;20490;-78
2023/03/28 10:24:01;;;;;;;1.60;0.20;;;14.40;1.00;;;;;;4917975;29;20257;-78
2023/03/28 10:26:27;;;;;;;3.27;0.57;;;14.70;1.00;;;;;;4917935;29;20452;-78
2023/03/28 10:28:56;;;;;;;4.17;1.10;;;15.10;1.00;;;;;;4917642;29;20450;-78
2023/03/28 10:31:27;;;;;;;1.77;0.40;;;15.60;1.00;;;;;;4917883;29;20543;-79
2023/03/28 10:33:55;;;;;;;2.40;0.40;;;15.90;1.00;;;;;;4917669;29;20971;-78
2023/03/28 10:36:28;;;;;;;1.80;0.60;;;16.10;1.00;;;;;;4917682;29;20531;-78
2023/03/28 10:38:54;;;;;;;0.97;0.20;;;16.00;1.00;;;;;;4917724;29;20430;-78
2023/03/28 10:41:27;;;;;;;1.87;0.37;;;15.80;1.00;;;;;;4932620;29;20461;-78
2023/03/28 10:43:54;;;;;;;1.00;0.20;;;15.60;1.00;;;;;;4917285;29;20489;-78
2023/03/28 10:46:35;;;;;;;5.50;1.07;;;15.20;1.00;;;;;;4916987;29;20475;-78
2023/03/28 10:49:04;;;;;;;2.40;0.50;;;14.70;1.00;;;;;;4917596;29;20479;-78
2023/03/28 10:51:31;;;;;;;1.83;0.40;;;14.00;1.00;;;;;;4917399;29;20427;-80
2023/03/28 10:54:24;;;;;;;6.37;0.67;;;13.70;1.00;;;;;;4917506;29;20438;-80
2023/03/28 10:56:56;;;;;;;3.93;0.40;;;13.40;1.00;;;;;;4917565;29;20423;-80
2023/03/28 10:59:31;;;;;;;3.60;0.80;;;13.10;1.00;;;;;;4917108;29;20911;-80
2023/03/28 11:02:40;;;;;;;2.30;0.70;;;12.90;1.00;;;;;;4931944;29;20496;-78
2023/03/28 11:05:27;;;;;;;3.03;0.63;;;12.80;1.00;;;;;;4917207;29;20922;-78
2023/03/28 11:08:11;;;;;;;1.63;0.30;;;12.50;1.00;;;;;;4917169;29;20462;-78
2023/03/28 11:10:55;;;;;;;2.27;0.27;;;12.50;1.00;;;;;;4915969;29;20951;-80
2023/03/28 11:13:38;;;;;;;2.70;0.43;;;12.70;1.00;;;;;;4915565;29;20463;-79
2023/03/28 11:16:21;;;;;;;4.23;0.30;;;12.90;1.00;;;;;;4917019;29;20483;-78
2023/03/28 11:19:07;;;;;;;1.00;0.40;;;13.00;1.00;;;;;;4917026;29;20427;-78
2023/03/28 11:21:44;;;;;;;1.53;0.30;;;12.90;1.00;;;;;;4917106;29;20421;-79
2023/03/28 11:24:29;;;;;;;2.37;0.50;;;12.80;1.00;;;;;;4917035;29;20501;-78
2023/03/28 11:27:06;;;;;;;1.60;0.23;;;12.60;1.00;;;;;;4915766;29;20431;-79
2023/03/28 11:29:40;;;;;;;2.53;0.53;;;12.50;1.00;;;;;;4916649;29;20468;-78
2023/03/28 11:32:22;;;;;;;6.20;0.40;;;12.40;1.00;;;;;;4916870;29;20418;-78
2023/03/28 11:35:00;;;;;;;2.77;0.70;;;12.20;1.00;;;;;;4916802;29;20461;-78
2023/03/28 11:37:46;;;;;;;1.30;0.20;;;12.40;1.00;;;;;;4916749;29;20466;-78
2023/03/28 11:40:27;;;;;;;2.97;0.40;;;12.30;1.00;;;;;;4916914;29;20510;-78
2023/03/28 11:42:57;;;;;;;3.57;0.50;;;12.20;1.00;;;;;;4916481;29;20469;-78
2023/03/28 11:45:46;;;;;;;2.00;0.30;;;12.40;1.00;;;;;;4916866;29;20467;-80
2023/03/28 11:48:22;;;;;;;1.37;0.30;;;12.90;1.00;;;;;;4916683;29;20478;-78
2023/03/28 11:51:06;;;;;;;3.07;0.37;;;13.20;1.00;;;;;;4916751;29;20756;-79
2023/03/28 11:54:08;;;;;;;2.60;0.20;;;13.50;1.00;;;;;;4931304;29;20532;-78
2023/03/28 11:56:57;;;;;;;1.37;0.23;;;13.60;1.00;;;;;;4918083;29;20839;-78
2023/03/28 11:59:36;;;;;;;2.20;0.53;;;13.40;1.00;;;;;;4920234;29;20627;-78
2023/03/28 12:02:23;;;;;;;2.60;0.30;;;13.40;1.00;;;;;;4920537;29;20434;-78
2023/03/28 12:04:56;;;;;;;1.93;0.30;;;13.30;1.00;;;;;;4920594;29;20871;-78
2023/03/28 12:07:30;;;;;;;1.17;0.20;;;12.80;1.00;;;;;;4920347;29;20775;-80
2023/03/28 12:10:11;;;;;;;2.60;0.50;;;12.50;1.00;;;;;;4919882;29;20405;-80
2023/03/28 12:13:09;;;;;;;3.07;0.50;;;12.40;1.00;;;;;;4937161;29;20564;-79
2023/03/28 12:15:42;;;;;;;1.10;0.20;;;12.40;1.00;;;;;;4938783;28;20946;-81
2023/03/28 12:18:31;;;;;;;1.73;0.40;;;12.10;1.00;;;;;;4937574;29;20430;-78
2023/03/28 12:21:17;;;;;;;2.10;0.20;;;11.70;1.00;;;;;;4938735;29;20453;-78
2023/03/28 12:24:10;;;;;;;2.30;0.40;;;11.60;1.00;;;;;;4937511;29;20428;-81
2023/03/28 12:27:01;;;;;;;1.73;0.57;;;11.60;1.00;;;;;;4938852;29;20430;-80
2023/03/28 12:29:59;;;;;;;2.90;0.23;;;11.90;1.00;;;;;;4938433;29;20413;-78
2023/03/28 12:32:33;;;;;;;1.63;0.20;;;12.60;1.00;;;;;;4937439;29;20434;-78
2023/03/28 12:35:31;;;;;;;1.23;0.60;;;13.20;1.00;;;;;;4936952;29;20466;-78
2023/03/28 12:38:00;;;;;;;4.60;0.50;;;13.70;1.00;;;;;;4936961;29;20477;-78
2023/03/28 12:40:49;;;;;;;1.80;0.30;;;14.70;1.00;;;;;;4937320;29;20424;-78
2023/03/28 12:43:17;;;;;;;1.70;0.30;;;15.60;1.00;;;;;;4952906;29;20859;-78
2023/03/28 12:45:46;;;;;;;2.80;0.50;;;15.90;1.00;;;;;;4937795;29;20424;-78
2023/03/28 12:48:28;;;;;;;2.50;0.40;;;15.70;1.00;;;;;;4937074;29;20439;-78
2023/03/28 12:51:11;;;;;;;2.20;0.50;;;15.10;1.00;;;;;;4935877;29;20450;-78
2023/03/28 12:53:57;;;;;;;1.47;0.20;;;14.90;1.00;;;;;;4936516;29;20435;-78
2023/03/28 12:56:23;;;;;;;2.40;0.50;;;14.60;1.00;;;;;;4938193;29;20879;-77
2023/03/28 12:58:51;;;;;;;3.10;0.43;;;14.50;1.00;;;;;;4936898;29;20422;-78
2023/03/28 13:01:43;;;;;;;3.60;0.60;;;14.50;1.00;;;;;;4936436;29;20258;-78
2023/03/28 13:04:13;;;;;;;3.43;0.60;;;13.90;1.00;;;;;;4934367;29;20428;-78
2023/03/28 13:06:48;;;;;;;2.23;0.40;;;13.40;1.00;;;;;;4937128;29;20436;-79
2023/03/28 13:09:30;;;;;;;3.40;0.70;;;12.90;1.00;;;;;;4934778;29;20816;-79
2023/03/28 13:12:24;;;;;;;3.40;0.77;;;12.50;1.00;;;;;;4951565;29;20439;-77
2023/03/28 13:15:22;;;;;;;1.97;0.50;;;12.10;1.00;;;;;;4949448;29;20471;-77
2023/03/28 13:18:19;;;;;;;3.03;0.87;;;12.00;1.00;;;;;;4935627;29;20439;-78
2023/03/28 13:20:45;;;;;;;4.20;0.20;;;11.70;1.00;;;;;;4951267;29;20486;-77
2023/03/28 13:23:14;;;;;;;6.43;0.80;;;11.60;1.00;;;;;;4951408;29;20947;-78
2023/03/28 13:25:41;;;;;;;6.07;0.43;;;11.60;1.00;;;;;;4951354;29;20544;-77
2023/03/28 13:28:10;;;;;;;5.70;0.67;;;11.50;1.00;;;;;;4933807;29;20410;-78